<?xml version="1.0" encoding="UTF-8" standalone="no" ?>
<gpx xmlns="http://www.topografix.com/GPX/1/1" xmlns:xsi="http://www.w3.org/2001/XMLSchema-instance" xsi:schemaLocation="http://www.topografix.com/GPX/1/1 http://www.topografix.com/GPX/1/1/gpx.xsd" version="1.1" creator="VisuGPX - https://www.visugpx.com">
  <metadata>
    <name>à la découverte du 38330</name>
    <desc><![CDATA[Première petite boucle tranquille pour découvrir Montbonnot]]></desc>
  </metadata>
  <trk>
    <name><![CDATA[2016-09-24 16:04:44]]></name>
    <trkseg>
      <trkpt lat="45.22283" lon="5.81219">
        <ele>253.93</ele>
        <time>2016-09-24T13:22:41Z</time>
      </trkpt>
      <trkpt lat="45.22296" lon="5.81226">
        <ele>253.93</ele>
        <time>2016-09-24T13:22:42Z</time>
      </trkpt>
      <trkpt lat="45.22293" lon="5.8122">
        <ele>250.56</ele>
        <time>2016-09-24T13:22:48Z</time>
      </trkpt>
      <trkpt lat="45.22292" lon="5.81218">
        <ele>226.05</ele>
        <time>2016-09-24T13:22:52Z</time>
      </trkpt>
      <trkpt lat="45.22292" lon="5.81218">
        <ele>226.05</ele>
        <time>2016-09-24T13:22:53Z</time>
      </trkpt>
      <trkpt lat="45.22292" lon="5.81218">
        <ele>231.81</ele>
        <time>2016-09-24T13:22:56Z</time>
      </trkpt>
      <trkpt lat="45.22293" lon="5.81219">
        <ele>231.81</ele>
        <time>2016-09-24T13:22:57Z</time>
      </trkpt>
      <trkpt lat="45.22291" lon="5.81219">
        <ele>230.85</ele>
        <time>2016-09-24T13:23:17Z</time>
      </trkpt>
      <trkpt lat="45.22299" lon="5.81203">
        <ele>234.22</ele>
        <time>2016-09-24T13:24:00Z</time>
      </trkpt>
      <trkpt lat="45.22297" lon="5.81217">
        <ele>231.81</ele>
        <time>2016-09-24T13:24:01Z</time>
      </trkpt>
      <trkpt lat="45.22295" lon="5.8122">
        <ele>231.33</ele>
        <time>2016-09-24T13:24:32Z</time>
      </trkpt>
      <trkpt lat="45.22293" lon="5.81217">
        <ele>231.33</ele>
        <time>2016-09-24T13:24:38Z</time>
      </trkpt>
      <trkpt lat="45.22273" lon="5.81191">
        <ele>231.33</ele>
        <time>2016-09-24T13:24:51Z</time>
      </trkpt>
      <trkpt lat="45.22239" lon="5.81176">
        <ele>230.85</ele>
        <time>2016-09-24T13:25:05Z</time>
      </trkpt>
      <trkpt lat="45.22198" lon="5.81181">
        <ele>229.41</ele>
        <time>2016-09-24T13:25:21Z</time>
      </trkpt>
      <trkpt lat="45.22168" lon="5.81197">
        <ele>227.97</ele>
        <time>2016-09-24T13:25:34Z</time>
      </trkpt>
      <trkpt lat="45.22166" lon="5.812">
        <ele>227.97</ele>
        <time>2016-09-24T13:25:35Z</time>
      </trkpt>
      <trkpt lat="45.22165" lon="5.81203">
        <ele>227.97</ele>
        <time>2016-09-24T13:25:36Z</time>
      </trkpt>
      <trkpt lat="45.22164" lon="5.81206">
        <ele>227.97</ele>
        <time>2016-09-24T13:25:37Z</time>
      </trkpt>
      <trkpt lat="45.22164" lon="5.81209">
        <ele>227.97</ele>
        <time>2016-09-24T13:25:38Z</time>
      </trkpt>
      <trkpt lat="45.22164" lon="5.81211">
        <ele>227.97</ele>
        <time>2016-09-24T13:25:39Z</time>
      </trkpt>
      <trkpt lat="45.22165" lon="5.81214">
        <ele>227.97</ele>
        <time>2016-09-24T13:25:40Z</time>
      </trkpt>
      <trkpt lat="45.22164" lon="5.81244">
        <ele>227.97</ele>
        <time>2016-09-24T13:25:49Z</time>
      </trkpt>
      <trkpt lat="45.22169" lon="5.81255">
        <ele>227.49</ele>
        <time>2016-09-24T13:25:53Z</time>
      </trkpt>
      <trkpt lat="45.22171" lon="5.81257">
        <ele>227.49</ele>
        <time>2016-09-24T13:25:54Z</time>
      </trkpt>
      <trkpt lat="45.22193" lon="5.8128">
        <ele>228.45</ele>
        <time>2016-09-24T13:26:07Z</time>
      </trkpt>
      <trkpt lat="45.222" lon="5.81292">
        <ele>228.45</ele>
        <time>2016-09-24T13:26:11Z</time>
      </trkpt>
      <trkpt lat="45.22203" lon="5.81294">
        <ele>228.45</ele>
        <time>2016-09-24T13:26:12Z</time>
      </trkpt>
      <trkpt lat="45.22205" lon="5.81296">
        <ele>228.45</ele>
        <time>2016-09-24T13:26:13Z</time>
      </trkpt>
      <trkpt lat="45.22207" lon="5.81299">
        <ele>228.45</ele>
        <time>2016-09-24T13:26:14Z</time>
      </trkpt>
      <trkpt lat="45.22209" lon="5.81301">
        <ele>228.45</ele>
        <time>2016-09-24T13:26:15Z</time>
      </trkpt>
      <trkpt lat="45.22211" lon="5.81304">
        <ele>228.45</ele>
        <time>2016-09-24T13:26:16Z</time>
      </trkpt>
      <trkpt lat="45.22214" lon="5.81306">
        <ele>228.45</ele>
        <time>2016-09-24T13:26:17Z</time>
      </trkpt>
      <trkpt lat="45.22216" lon="5.81309">
        <ele>228.45</ele>
        <time>2016-09-24T13:26:18Z</time>
      </trkpt>
      <trkpt lat="45.22218" lon="5.81311">
        <ele>228.45</ele>
        <time>2016-09-24T13:26:19Z</time>
      </trkpt>
      <trkpt lat="45.2222" lon="5.81313">
        <ele>228.45</ele>
        <time>2016-09-24T13:26:20Z</time>
      </trkpt>
      <trkpt lat="45.22222" lon="5.81315">
        <ele>228.45</ele>
        <time>2016-09-24T13:26:21Z</time>
      </trkpt>
      <trkpt lat="45.22247" lon="5.81337">
        <ele>228.93</ele>
        <time>2016-09-24T13:26:33Z</time>
      </trkpt>
      <trkpt lat="45.22272" lon="5.81362">
        <ele>229.41</ele>
        <time>2016-09-24T13:26:46Z</time>
      </trkpt>
      <trkpt lat="45.22303" lon="5.81388">
        <ele>230.37</ele>
        <time>2016-09-24T13:27:00Z</time>
      </trkpt>
      <trkpt lat="45.22323" lon="5.81404">
        <ele>230.85</ele>
        <time>2016-09-24T13:27:09Z</time>
      </trkpt>
      <trkpt lat="45.22325" lon="5.81406">
        <ele>230.85</ele>
        <time>2016-09-24T13:27:10Z</time>
      </trkpt>
      <trkpt lat="45.22349" lon="5.81406">
        <ele>231.33</ele>
        <time>2016-09-24T13:27:21Z</time>
      </trkpt>
      <trkpt lat="45.22373" lon="5.81371">
        <ele>233.74</ele>
        <time>2016-09-24T13:27:36Z</time>
      </trkpt>
      <trkpt lat="45.22401" lon="5.81343">
        <ele>235.18</ele>
        <time>2016-09-24T13:27:52Z</time>
      </trkpt>
      <trkpt lat="45.22428" lon="5.81316">
        <ele>236.62</ele>
        <time>2016-09-24T13:28:08Z</time>
      </trkpt>
      <trkpt lat="45.22449" lon="5.81294">
        <ele>238.06</ele>
        <time>2016-09-24T13:28:20Z</time>
      </trkpt>
      <trkpt lat="45.2245" lon="5.81292">
        <ele>238.06</ele>
        <time>2016-09-24T13:28:21Z</time>
      </trkpt>
      <trkpt lat="45.22452" lon="5.81291">
        <ele>238.06</ele>
        <time>2016-09-24T13:28:22Z</time>
      </trkpt>
      <trkpt lat="45.22454" lon="5.81289">
        <ele>238.54</ele>
        <time>2016-09-24T13:28:23Z</time>
      </trkpt>
      <trkpt lat="45.22477" lon="5.81262">
        <ele>239.99</ele>
        <time>2016-09-24T13:28:38Z</time>
      </trkpt>
      <trkpt lat="45.22496" lon="5.81233">
        <ele>240.95</ele>
        <time>2016-09-24T13:28:51Z</time>
      </trkpt>
      <trkpt lat="45.22516" lon="5.81204">
        <ele>242.39</ele>
        <time>2016-09-24T13:29:04Z</time>
      </trkpt>
      <trkpt lat="45.22542" lon="5.81163">
        <ele>244.31</ele>
        <time>2016-09-24T13:29:21Z</time>
      </trkpt>
      <trkpt lat="45.22565" lon="5.81138">
        <ele>245.75</ele>
        <time>2016-09-24T13:29:34Z</time>
      </trkpt>
      <trkpt lat="45.2259" lon="5.81115">
        <ele>248.16</ele>
        <time>2016-09-24T13:29:48Z</time>
      </trkpt>
      <trkpt lat="45.22616" lon="5.8109">
        <ele>250.56</ele>
        <time>2016-09-24T13:30:02Z</time>
      </trkpt>
      <trkpt lat="45.22618" lon="5.81089">
        <ele>251.04</ele>
        <time>2016-09-24T13:30:03Z</time>
      </trkpt>
      <trkpt lat="45.2262" lon="5.81088">
        <ele>251.04</ele>
        <time>2016-09-24T13:30:04Z</time>
      </trkpt>
      <trkpt lat="45.22621" lon="5.81088">
        <ele>251.04</ele>
        <time>2016-09-24T13:30:05Z</time>
      </trkpt>
      <trkpt lat="45.22633" lon="5.81089">
        <ele>251.52</ele>
        <time>2016-09-24T13:30:11Z</time>
      </trkpt>
      <trkpt lat="45.22634" lon="5.81088">
        <ele>251.52</ele>
        <time>2016-09-24T13:30:12Z</time>
      </trkpt>
      <trkpt lat="45.2264" lon="5.81086">
        <ele>252</ele>
        <time>2016-09-24T13:30:15Z</time>
      </trkpt>
      <trkpt lat="45.22642" lon="5.81085">
        <ele>252</ele>
        <time>2016-09-24T13:30:16Z</time>
      </trkpt>
      <trkpt lat="45.22644" lon="5.81084">
        <ele>252.48</ele>
        <time>2016-09-24T13:30:17Z</time>
      </trkpt>
      <trkpt lat="45.22646" lon="5.81084">
        <ele>252.48</ele>
        <time>2016-09-24T13:30:18Z</time>
      </trkpt>
      <trkpt lat="45.22649" lon="5.81084">
        <ele>252.48</ele>
        <time>2016-09-24T13:30:19Z</time>
      </trkpt>
      <trkpt lat="45.22651" lon="5.81083">
        <ele>252.48</ele>
        <time>2016-09-24T13:30:20Z</time>
      </trkpt>
      <trkpt lat="45.22653" lon="5.81084">
        <ele>252.48</ele>
        <time>2016-09-24T13:30:21Z</time>
      </trkpt>
      <trkpt lat="45.22655" lon="5.81084">
        <ele>252.96</ele>
        <time>2016-09-24T13:30:22Z</time>
      </trkpt>
      <trkpt lat="45.22657" lon="5.81085">
        <ele>252.96</ele>
        <time>2016-09-24T13:30:23Z</time>
      </trkpt>
      <trkpt lat="45.22659" lon="5.81086">
        <ele>253.44</ele>
        <time>2016-09-24T13:30:24Z</time>
      </trkpt>
      <trkpt lat="45.22661" lon="5.81087">
        <ele>253.44</ele>
        <time>2016-09-24T13:30:25Z</time>
      </trkpt>
      <trkpt lat="45.22664" lon="5.81087">
        <ele>253.44</ele>
        <time>2016-09-24T13:30:26Z</time>
      </trkpt>
      <trkpt lat="45.22666" lon="5.81086">
        <ele>253.93</ele>
        <time>2016-09-24T13:30:27Z</time>
      </trkpt>
      <trkpt lat="45.22692" lon="5.81079">
        <ele>254.89</ele>
        <time>2016-09-24T13:30:39Z</time>
      </trkpt>
      <trkpt lat="45.22697" lon="5.81075">
        <ele>255.37</ele>
        <time>2016-09-24T13:30:42Z</time>
      </trkpt>
      <trkpt lat="45.227" lon="5.81073">
        <ele>255.37</ele>
        <time>2016-09-24T13:30:43Z</time>
      </trkpt>
      <trkpt lat="45.22702" lon="5.81071">
        <ele>255.37</ele>
        <time>2016-09-24T13:30:44Z</time>
      </trkpt>
      <trkpt lat="45.22734" lon="5.81056">
        <ele>257.29</ele>
        <time>2016-09-24T13:30:57Z</time>
      </trkpt>
      <trkpt lat="45.22762" lon="5.81039">
        <ele>260.17</ele>
        <time>2016-09-24T13:31:10Z</time>
      </trkpt>
      <trkpt lat="45.22786" lon="5.81013">
        <ele>262.58</ele>
        <time>2016-09-24T13:31:25Z</time>
      </trkpt>
      <trkpt lat="45.22808" lon="5.8099">
        <ele>265.46</ele>
        <time>2016-09-24T13:31:38Z</time>
      </trkpt>
      <trkpt lat="45.22828" lon="5.8097">
        <ele>266.9</ele>
        <time>2016-09-24T13:31:50Z</time>
      </trkpt>
      <trkpt lat="45.22849" lon="5.8095">
        <ele>267.86</ele>
        <time>2016-09-24T13:32:02Z</time>
      </trkpt>
      <trkpt lat="45.22869" lon="5.80927">
        <ele>270.27</ele>
        <time>2016-09-24T13:32:14Z</time>
      </trkpt>
      <trkpt lat="45.22887" lon="5.80908">
        <ele>272.19</ele>
        <time>2016-09-24T13:32:26Z</time>
      </trkpt>
      <trkpt lat="45.22908" lon="5.80891">
        <ele>274.59</ele>
        <time>2016-09-24T13:32:38Z</time>
      </trkpt>
      <trkpt lat="45.22934" lon="5.80875">
        <ele>276.52</ele>
        <time>2016-09-24T13:32:50Z</time>
      </trkpt>
      <trkpt lat="45.22957" lon="5.80858">
        <ele>278.44</ele>
        <time>2016-09-24T13:33:03Z</time>
      </trkpt>
      <trkpt lat="45.2298" lon="5.8084">
        <ele>281.32</ele>
        <time>2016-09-24T13:33:16Z</time>
      </trkpt>
      <trkpt lat="45.23001" lon="5.80826">
        <ele>283.73</ele>
        <time>2016-09-24T13:33:28Z</time>
      </trkpt>
      <trkpt lat="45.23022" lon="5.80809">
        <ele>285.65</ele>
        <time>2016-09-24T13:33:39Z</time>
      </trkpt>
      <trkpt lat="45.2303" lon="5.80801">
        <ele>286.61</ele>
        <time>2016-09-24T13:33:44Z</time>
      </trkpt>
      <trkpt lat="45.23032" lon="5.808">
        <ele>287.09</ele>
        <time>2016-09-24T13:33:45Z</time>
      </trkpt>
      <trkpt lat="45.23033" lon="5.80799">
        <ele>287.09</ele>
        <time>2016-09-24T13:33:46Z</time>
      </trkpt>
      <trkpt lat="45.23048" lon="5.80785">
        <ele>289.97</ele>
        <time>2016-09-24T13:33:58Z</time>
      </trkpt>
      <trkpt lat="45.23069" lon="5.8076">
        <ele>292.38</ele>
        <time>2016-09-24T13:34:12Z</time>
      </trkpt>
      <trkpt lat="45.23076" lon="5.80739">
        <ele>294.3</ele>
        <time>2016-09-24T13:34:20Z</time>
      </trkpt>
      <trkpt lat="45.23077" lon="5.80737">
        <ele>294.3</ele>
        <time>2016-09-24T13:34:21Z</time>
      </trkpt>
      <trkpt lat="45.23077" lon="5.80735">
        <ele>294.3</ele>
        <time>2016-09-24T13:34:22Z</time>
      </trkpt>
      <trkpt lat="45.23076" lon="5.80734">
        <ele>294.3</ele>
        <time>2016-09-24T13:34:23Z</time>
      </trkpt>
      <trkpt lat="45.23075" lon="5.80732">
        <ele>294.3</ele>
        <time>2016-09-24T13:34:24Z</time>
      </trkpt>
      <trkpt lat="45.23073" lon="5.8073">
        <ele>294.3</ele>
        <time>2016-09-24T13:34:25Z</time>
      </trkpt>
      <trkpt lat="45.23061" lon="5.80725">
        <ele>294.78</ele>
        <time>2016-09-24T13:34:32Z</time>
      </trkpt>
      <trkpt lat="45.2306" lon="5.80725">
        <ele>294.78</ele>
        <time>2016-09-24T13:34:33Z</time>
      </trkpt>
      <trkpt lat="45.23058" lon="5.80725">
        <ele>295.26</ele>
        <time>2016-09-24T13:34:34Z</time>
      </trkpt>
      <trkpt lat="45.23056" lon="5.80724">
        <ele>295.26</ele>
        <time>2016-09-24T13:34:35Z</time>
      </trkpt>
      <trkpt lat="45.23054" lon="5.80724">
        <ele>295.26</ele>
        <time>2016-09-24T13:34:36Z</time>
      </trkpt>
      <trkpt lat="45.23052" lon="5.80723">
        <ele>295.26</ele>
        <time>2016-09-24T13:34:37Z</time>
      </trkpt>
      <trkpt lat="45.23051" lon="5.80723">
        <ele>295.26</ele>
        <time>2016-09-24T13:34:38Z</time>
      </trkpt>
      <trkpt lat="45.23049" lon="5.80722">
        <ele>295.26</ele>
        <time>2016-09-24T13:34:39Z</time>
      </trkpt>
      <trkpt lat="45.23048" lon="5.80722">
        <ele>295.74</ele>
        <time>2016-09-24T13:34:40Z</time>
      </trkpt>
      <trkpt lat="45.23046" lon="5.80721">
        <ele>295.74</ele>
        <time>2016-09-24T13:34:41Z</time>
      </trkpt>
      <trkpt lat="45.23045" lon="5.8072">
        <ele>295.74</ele>
        <time>2016-09-24T13:34:42Z</time>
      </trkpt>
      <trkpt lat="45.23024" lon="5.80713">
        <ele>296.7</ele>
        <time>2016-09-24T13:34:52Z</time>
      </trkpt>
      <trkpt lat="45.23003" lon="5.80695">
        <ele>298.15</ele>
        <time>2016-09-24T13:35:03Z</time>
      </trkpt>
      <trkpt lat="45.2298" lon="5.80666">
        <ele>299.11</ele>
        <time>2016-09-24T13:35:16Z</time>
      </trkpt>
      <trkpt lat="45.22967" lon="5.80645">
        <ele>300.07</ele>
        <time>2016-09-24T13:35:24Z</time>
      </trkpt>
      <trkpt lat="45.22965" lon="5.80643">
        <ele>300.55</ele>
        <time>2016-09-24T13:35:25Z</time>
      </trkpt>
      <trkpt lat="45.22944" lon="5.80616">
        <ele>300.55</ele>
        <time>2016-09-24T13:35:35Z</time>
      </trkpt>
      <trkpt lat="45.22935" lon="5.80605">
        <ele>301.03</ele>
        <time>2016-09-24T13:35:40Z</time>
      </trkpt>
      <trkpt lat="45.22916" lon="5.80579">
        <ele>301.51</ele>
        <time>2016-09-24T13:35:51Z</time>
      </trkpt>
      <trkpt lat="45.22914" lon="5.80576">
        <ele>301.99</ele>
        <time>2016-09-24T13:35:52Z</time>
      </trkpt>
      <trkpt lat="45.22891" lon="5.8054">
        <ele>302.47</ele>
        <time>2016-09-24T13:36:05Z</time>
      </trkpt>
      <trkpt lat="45.22869" lon="5.80504">
        <ele>303.43</ele>
        <time>2016-09-24T13:36:17Z</time>
      </trkpt>
      <trkpt lat="45.22867" lon="5.80502">
        <ele>303.43</ele>
        <time>2016-09-24T13:36:18Z</time>
      </trkpt>
      <trkpt lat="45.22866" lon="5.805">
        <ele>303.43</ele>
        <time>2016-09-24T13:36:19Z</time>
      </trkpt>
      <trkpt lat="45.22849" lon="5.80475">
        <ele>303.91</ele>
        <time>2016-09-24T13:36:30Z</time>
      </trkpt>
      <trkpt lat="45.22837" lon="5.80457">
        <ele>304.39</ele>
        <time>2016-09-24T13:36:38Z</time>
      </trkpt>
      <trkpt lat="45.22835" lon="5.80456">
        <ele>304.39</ele>
        <time>2016-09-24T13:36:39Z</time>
      </trkpt>
      <trkpt lat="45.22834" lon="5.80454">
        <ele>304.39</ele>
        <time>2016-09-24T13:36:40Z</time>
      </trkpt>
      <trkpt lat="45.22811" lon="5.80423">
        <ele>304.88</ele>
        <time>2016-09-24T13:36:52Z</time>
      </trkpt>
      <trkpt lat="45.22798" lon="5.80405">
        <ele>304.88</ele>
        <time>2016-09-24T13:36:59Z</time>
      </trkpt>
      <trkpt lat="45.22797" lon="5.80404">
        <ele>304.88</ele>
        <time>2016-09-24T13:37:00Z</time>
      </trkpt>
      <trkpt lat="45.22795" lon="5.80403">
        <ele>304.88</ele>
        <time>2016-09-24T13:37:01Z</time>
      </trkpt>
      <trkpt lat="45.22793" lon="5.80402">
        <ele>304.88</ele>
        <time>2016-09-24T13:37:02Z</time>
      </trkpt>
      <trkpt lat="45.22792" lon="5.804">
        <ele>304.88</ele>
        <time>2016-09-24T13:37:03Z</time>
      </trkpt>
      <trkpt lat="45.2279" lon="5.804">
        <ele>304.88</ele>
        <time>2016-09-24T13:37:04Z</time>
      </trkpt>
      <trkpt lat="45.22789" lon="5.80399">
        <ele>304.88</ele>
        <time>2016-09-24T13:37:05Z</time>
      </trkpt>
      <trkpt lat="45.22787" lon="5.80398">
        <ele>304.88</ele>
        <time>2016-09-24T13:37:06Z</time>
      </trkpt>
      <trkpt lat="45.22785" lon="5.80396">
        <ele>304.88</ele>
        <time>2016-09-24T13:37:07Z</time>
      </trkpt>
      <trkpt lat="45.22769" lon="5.80366">
        <ele>304.88</ele>
        <time>2016-09-24T13:37:19Z</time>
      </trkpt>
      <trkpt lat="45.22749" lon="5.80345">
        <ele>304.88</ele>
        <time>2016-09-24T13:37:29Z</time>
      </trkpt>
      <trkpt lat="45.22723" lon="5.80329">
        <ele>303.91</ele>
        <time>2016-09-24T13:37:41Z</time>
      </trkpt>
      <trkpt lat="45.22691" lon="5.80311">
        <ele>303.91</ele>
        <time>2016-09-24T13:37:54Z</time>
      </trkpt>
      <trkpt lat="45.22681" lon="5.80305">
        <ele>303.91</ele>
        <time>2016-09-24T13:38:00Z</time>
      </trkpt>
      <trkpt lat="45.22679" lon="5.80304">
        <ele>303.91</ele>
        <time>2016-09-24T13:38:01Z</time>
      </trkpt>
      <trkpt lat="45.22671" lon="5.80305">
        <ele>303.91</ele>
        <time>2016-09-24T13:38:04Z</time>
      </trkpt>
      <trkpt lat="45.22647" lon="5.80336">
        <ele>301.03</ele>
        <time>2016-09-24T13:38:16Z</time>
      </trkpt>
      <trkpt lat="45.22624" lon="5.80365">
        <ele>300.07</ele>
        <time>2016-09-24T13:38:29Z</time>
      </trkpt>
      <trkpt lat="45.22614" lon="5.80377">
        <ele>297.67</ele>
        <time>2016-09-24T13:38:35Z</time>
      </trkpt>
      <trkpt lat="45.22612" lon="5.80379">
        <ele>297.18</ele>
        <time>2016-09-24T13:38:36Z</time>
      </trkpt>
      <trkpt lat="45.2261" lon="5.80381">
        <ele>297.18</ele>
        <time>2016-09-24T13:38:37Z</time>
      </trkpt>
      <trkpt lat="45.22608" lon="5.80383">
        <ele>296.7</ele>
        <time>2016-09-24T13:38:38Z</time>
      </trkpt>
      <trkpt lat="45.22607" lon="5.80385">
        <ele>296.22</ele>
        <time>2016-09-24T13:38:39Z</time>
      </trkpt>
      <trkpt lat="45.22605" lon="5.80387">
        <ele>296.22</ele>
        <time>2016-09-24T13:38:40Z</time>
      </trkpt>
      <trkpt lat="45.22604" lon="5.80389">
        <ele>295.74</ele>
        <time>2016-09-24T13:38:41Z</time>
      </trkpt>
      <trkpt lat="45.22603" lon="5.80391">
        <ele>295.26</ele>
        <time>2016-09-24T13:38:42Z</time>
      </trkpt>
      <trkpt lat="45.22603" lon="5.80393">
        <ele>294.78</ele>
        <time>2016-09-24T13:38:43Z</time>
      </trkpt>
      <trkpt lat="45.22602" lon="5.80396">
        <ele>294.3</ele>
        <time>2016-09-24T13:38:45Z</time>
      </trkpt>
      <trkpt lat="45.22602" lon="5.80401">
        <ele>293.34</ele>
        <time>2016-09-24T13:38:48Z</time>
      </trkpt>
      <trkpt lat="45.22594" lon="5.80402">
        <ele>293.34</ele>
        <time>2016-09-24T13:38:53Z</time>
      </trkpt>
      <trkpt lat="45.22578" lon="5.80393">
        <ele>289.49</ele>
        <time>2016-09-24T13:39:04Z</time>
      </trkpt>
      <trkpt lat="45.22576" lon="5.80391">
        <ele>289.49</ele>
        <time>2016-09-24T13:39:05Z</time>
      </trkpt>
      <trkpt lat="45.22569" lon="5.80382">
        <ele>286.61</ele>
        <time>2016-09-24T13:39:10Z</time>
      </trkpt>
      <trkpt lat="45.22564" lon="5.80373">
        <ele>284.69</ele>
        <time>2016-09-24T13:39:14Z</time>
      </trkpt>
      <trkpt lat="45.22559" lon="5.80366">
        <ele>283.25</ele>
        <time>2016-09-24T13:39:18Z</time>
      </trkpt>
      <trkpt lat="45.22556" lon="5.80362">
        <ele>282.28</ele>
        <time>2016-09-24T13:39:20Z</time>
      </trkpt>
      <trkpt lat="45.2254" lon="5.80355">
        <ele>278.92</ele>
        <time>2016-09-24T13:39:28Z</time>
      </trkpt>
      <trkpt lat="45.22531" lon="5.80348">
        <ele>277</ele>
        <time>2016-09-24T13:39:33Z</time>
      </trkpt>
      <trkpt lat="45.22527" lon="5.80343">
        <ele>276.52</ele>
        <time>2016-09-24T13:39:37Z</time>
      </trkpt>
      <trkpt lat="45.2252" lon="5.80331">
        <ele>274.11</ele>
        <time>2016-09-24T13:39:43Z</time>
      </trkpt>
      <trkpt lat="45.22511" lon="5.80321">
        <ele>271.71</ele>
        <time>2016-09-24T13:39:48Z</time>
      </trkpt>
      <trkpt lat="45.22506" lon="5.80312">
        <ele>268.83</ele>
        <time>2016-09-24T13:39:52Z</time>
      </trkpt>
      <trkpt lat="45.2249" lon="5.80299">
        <ele>264.98</ele>
        <time>2016-09-24T13:39:59Z</time>
      </trkpt>
      <trkpt lat="45.22482" lon="5.80292">
        <ele>263.06</ele>
        <time>2016-09-24T13:40:02Z</time>
      </trkpt>
      <trkpt lat="45.22471" lon="5.8028">
        <ele>259.69</ele>
        <time>2016-09-24T13:40:07Z</time>
      </trkpt>
      <trkpt lat="45.22469" lon="5.80278">
        <ele>259.69</ele>
        <time>2016-09-24T13:40:08Z</time>
      </trkpt>
      <trkpt lat="45.22458" lon="5.80265">
        <ele>256.33</ele>
        <time>2016-09-24T13:40:14Z</time>
      </trkpt>
      <trkpt lat="45.22455" lon="5.8026">
        <ele>255.37</ele>
        <time>2016-09-24T13:40:17Z</time>
      </trkpt>
      <trkpt lat="45.22452" lon="5.80254">
        <ele>253.93</ele>
        <time>2016-09-24T13:40:21Z</time>
      </trkpt>
      <trkpt lat="45.2244" lon="5.80253">
        <ele>252.48</ele>
        <time>2016-09-24T13:40:26Z</time>
      </trkpt>
      <trkpt lat="45.22442" lon="5.80266">
        <ele>252</ele>
        <time>2016-09-24T13:40:33Z</time>
      </trkpt>
      <trkpt lat="45.22452" lon="5.80295">
        <ele>252</ele>
        <time>2016-09-24T13:40:44Z</time>
      </trkpt>
      <trkpt lat="45.22455" lon="5.80299">
        <ele>252</ele>
        <time>2016-09-24T13:40:46Z</time>
      </trkpt>
      <trkpt lat="45.22466" lon="5.80332">
        <ele>251.52</ele>
        <time>2016-09-24T13:40:57Z</time>
      </trkpt>
      <trkpt lat="45.22467" lon="5.8034">
        <ele>251.52</ele>
        <time>2016-09-24T13:41:00Z</time>
      </trkpt>
      <trkpt lat="45.22463" lon="5.8034">
        <ele>249.6</ele>
        <time>2016-09-24T13:41:04Z</time>
      </trkpt>
      <trkpt lat="45.22461" lon="5.80337">
        <ele>248.16</ele>
        <time>2016-09-24T13:41:07Z</time>
      </trkpt>
      <trkpt lat="45.2246" lon="5.80336">
        <ele>247.2</ele>
        <time>2016-09-24T13:41:08Z</time>
      </trkpt>
      <trkpt lat="45.22449" lon="5.80332">
        <ele>244.79</ele>
        <time>2016-09-24T13:41:14Z</time>
      </trkpt>
      <trkpt lat="45.22444" lon="5.80336">
        <ele>243.35</ele>
        <time>2016-09-24T13:41:16Z</time>
      </trkpt>
      <trkpt lat="45.22418" lon="5.80351">
        <ele>239.99</ele>
        <time>2016-09-24T13:41:24Z</time>
      </trkpt>
      <trkpt lat="45.22392" lon="5.80369">
        <ele>237.1</ele>
        <time>2016-09-24T13:41:34Z</time>
      </trkpt>
      <trkpt lat="45.22362" lon="5.80391">
        <ele>236.14</ele>
        <time>2016-09-24T13:41:47Z</time>
      </trkpt>
      <trkpt lat="45.22351" lon="5.80395">
        <ele>236.14</ele>
        <time>2016-09-24T13:41:52Z</time>
      </trkpt>
      <trkpt lat="45.22349" lon="5.80394">
        <ele>236.14</ele>
        <time>2016-09-24T13:41:53Z</time>
      </trkpt>
      <trkpt lat="45.22343" lon="5.80391">
        <ele>236.14</ele>
        <time>2016-09-24T13:41:57Z</time>
      </trkpt>
      <trkpt lat="45.22341" lon="5.80391">
        <ele>236.14</ele>
        <time>2016-09-24T13:41:58Z</time>
      </trkpt>
      <trkpt lat="45.22339" lon="5.8039">
        <ele>236.14</ele>
        <time>2016-09-24T13:42:00Z</time>
      </trkpt>
      <trkpt lat="45.22338" lon="5.80389">
        <ele>236.14</ele>
        <time>2016-09-24T13:42:01Z</time>
      </trkpt>
      <trkpt lat="45.22336" lon="5.80387">
        <ele>236.14</ele>
        <time>2016-09-24T13:42:02Z</time>
      </trkpt>
      <trkpt lat="45.22335" lon="5.80385">
        <ele>236.14</ele>
        <time>2016-09-24T13:42:03Z</time>
      </trkpt>
      <trkpt lat="45.22321" lon="5.80353">
        <ele>236.14</ele>
        <time>2016-09-24T13:42:15Z</time>
      </trkpt>
      <trkpt lat="45.22312" lon="5.80319">
        <ele>237.58</ele>
        <time>2016-09-24T13:42:26Z</time>
      </trkpt>
      <trkpt lat="45.22301" lon="5.80279">
        <ele>238.54</ele>
        <time>2016-09-24T13:42:40Z</time>
      </trkpt>
      <trkpt lat="45.22291" lon="5.80234">
        <ele>239.51</ele>
        <time>2016-09-24T13:42:52Z</time>
      </trkpt>
      <trkpt lat="45.22277" lon="5.80191">
        <ele>240.47</ele>
        <time>2016-09-24T13:43:05Z</time>
      </trkpt>
      <trkpt lat="45.22263" lon="5.80154">
        <ele>241.91</ele>
        <time>2016-09-24T13:43:18Z</time>
      </trkpt>
      <trkpt lat="45.22251" lon="5.8012">
        <ele>243.35</ele>
        <time>2016-09-24T13:43:30Z</time>
      </trkpt>
      <trkpt lat="45.22241" lon="5.80086">
        <ele>244.79</ele>
        <time>2016-09-24T13:43:42Z</time>
      </trkpt>
      <trkpt lat="45.22239" lon="5.80076">
        <ele>245.27</ele>
        <time>2016-09-24T13:43:45Z</time>
      </trkpt>
      <trkpt lat="45.22239" lon="5.80074">
        <ele>245.27</ele>
        <time>2016-09-24T13:43:46Z</time>
      </trkpt>
      <trkpt lat="45.22238" lon="5.80071">
        <ele>245.27</ele>
        <time>2016-09-24T13:43:47Z</time>
      </trkpt>
      <trkpt lat="45.22238" lon="5.80068">
        <ele>245.27</ele>
        <time>2016-09-24T13:43:48Z</time>
      </trkpt>
      <trkpt lat="45.22237" lon="5.80066">
        <ele>245.75</ele>
        <time>2016-09-24T13:43:49Z</time>
      </trkpt>
      <trkpt lat="45.22225" lon="5.80029">
        <ele>246.72</ele>
        <time>2016-09-24T13:44:01Z</time>
      </trkpt>
      <trkpt lat="45.22213" lon="5.79994">
        <ele>249.12</ele>
        <time>2016-09-24T13:44:14Z</time>
      </trkpt>
      <trkpt lat="45.22212" lon="5.79991">
        <ele>249.12</ele>
        <time>2016-09-24T13:44:15Z</time>
      </trkpt>
      <trkpt lat="45.22211" lon="5.79989">
        <ele>249.12</ele>
        <time>2016-09-24T13:44:16Z</time>
      </trkpt>
      <trkpt lat="45.2221" lon="5.79986">
        <ele>249.12</ele>
        <time>2016-09-24T13:44:17Z</time>
      </trkpt>
      <trkpt lat="45.22209" lon="5.79984">
        <ele>249.12</ele>
        <time>2016-09-24T13:44:18Z</time>
      </trkpt>
      <trkpt lat="45.22207" lon="5.79981">
        <ele>249.6</ele>
        <time>2016-09-24T13:44:19Z</time>
      </trkpt>
      <trkpt lat="45.22201" lon="5.79962">
        <ele>250.08</ele>
        <time>2016-09-24T13:44:26Z</time>
      </trkpt>
      <trkpt lat="45.222" lon="5.7996">
        <ele>250.56</ele>
        <time>2016-09-24T13:44:27Z</time>
      </trkpt>
      <trkpt lat="45.22199" lon="5.79957">
        <ele>250.56</ele>
        <time>2016-09-24T13:44:28Z</time>
      </trkpt>
      <trkpt lat="45.22185" lon="5.79922">
        <ele>252.48</ele>
        <time>2016-09-24T13:44:41Z</time>
      </trkpt>
      <trkpt lat="45.22184" lon="5.79919">
        <ele>252.48</ele>
        <time>2016-09-24T13:44:42Z</time>
      </trkpt>
      <trkpt lat="45.22183" lon="5.79917">
        <ele>252.48</ele>
        <time>2016-09-24T13:44:43Z</time>
      </trkpt>
      <trkpt lat="45.22182" lon="5.79914">
        <ele>252.96</ele>
        <time>2016-09-24T13:44:44Z</time>
      </trkpt>
      <trkpt lat="45.22181" lon="5.79912">
        <ele>252.96</ele>
        <time>2016-09-24T13:44:45Z</time>
      </trkpt>
      <trkpt lat="45.22179" lon="5.79909">
        <ele>252.96</ele>
        <time>2016-09-24T13:44:46Z</time>
      </trkpt>
      <trkpt lat="45.22178" lon="5.79908">
        <ele>253.44</ele>
        <time>2016-09-24T13:44:47Z</time>
      </trkpt>
      <trkpt lat="45.22176" lon="5.79906">
        <ele>253.44</ele>
        <time>2016-09-24T13:44:48Z</time>
      </trkpt>
      <trkpt lat="45.22173" lon="5.79902">
        <ele>253.93</ele>
        <time>2016-09-24T13:44:50Z</time>
      </trkpt>
      <trkpt lat="45.22172" lon="5.799">
        <ele>253.93</ele>
        <time>2016-09-24T13:44:51Z</time>
      </trkpt>
      <trkpt lat="45.2217" lon="5.79899">
        <ele>253.93</ele>
        <time>2016-09-24T13:44:52Z</time>
      </trkpt>
      <trkpt lat="45.22168" lon="5.79898">
        <ele>253.93</ele>
        <time>2016-09-24T13:44:53Z</time>
      </trkpt>
      <trkpt lat="45.22166" lon="5.79897">
        <ele>253.93</ele>
        <time>2016-09-24T13:44:54Z</time>
      </trkpt>
      <trkpt lat="45.22164" lon="5.79896">
        <ele>253.93</ele>
        <time>2016-09-24T13:44:55Z</time>
      </trkpt>
      <trkpt lat="45.22162" lon="5.79897">
        <ele>253.93</ele>
        <time>2016-09-24T13:44:56Z</time>
      </trkpt>
      <trkpt lat="45.2216" lon="5.79898">
        <ele>252.48</ele>
        <time>2016-09-24T13:44:57Z</time>
      </trkpt>
      <trkpt lat="45.22158" lon="5.79899">
        <ele>252</ele>
        <time>2016-09-24T13:44:58Z</time>
      </trkpt>
      <trkpt lat="45.22155" lon="5.79901">
        <ele>252</ele>
        <time>2016-09-24T13:44:59Z</time>
      </trkpt>
      <trkpt lat="45.22134" lon="5.79933">
        <ele>250.08</ele>
        <time>2016-09-24T13:45:12Z</time>
      </trkpt>
      <trkpt lat="45.22122" lon="5.79967">
        <ele>249.12</ele>
        <time>2016-09-24T13:45:24Z</time>
      </trkpt>
      <trkpt lat="45.22106" lon="5.8">
        <ele>247.68</ele>
        <time>2016-09-24T13:45:38Z</time>
      </trkpt>
      <trkpt lat="45.22088" lon="5.80046">
        <ele>246.23</ele>
        <time>2016-09-24T13:45:52Z</time>
      </trkpt>
      <trkpt lat="45.22071" lon="5.80086">
        <ele>244.31</ele>
        <time>2016-09-24T13:46:06Z</time>
      </trkpt>
      <trkpt lat="45.22054" lon="5.80123">
        <ele>243.35</ele>
        <time>2016-09-24T13:46:19Z</time>
      </trkpt>
      <trkpt lat="45.22037" lon="5.80163">
        <ele>242.39</ele>
        <time>2016-09-24T13:46:32Z</time>
      </trkpt>
      <trkpt lat="45.22024" lon="5.80187">
        <ele>240.47</ele>
        <time>2016-09-24T13:46:43Z</time>
      </trkpt>
      <trkpt lat="45.22004" lon="5.80233">
        <ele>239.51</ele>
        <time>2016-09-24T13:46:59Z</time>
      </trkpt>
      <trkpt lat="45.21982" lon="5.80247">
        <ele>237.58</ele>
        <time>2016-09-24T13:47:12Z</time>
      </trkpt>
      <trkpt lat="45.2198" lon="5.80246">
        <ele>236.62</ele>
        <time>2016-09-24T13:47:13Z</time>
      </trkpt>
      <trkpt lat="45.21979" lon="5.80246">
        <ele>236.62</ele>
        <time>2016-09-24T13:47:14Z</time>
      </trkpt>
      <trkpt lat="45.21978" lon="5.80247">
        <ele>236.62</ele>
        <time>2016-09-24T13:47:15Z</time>
      </trkpt>
      <trkpt lat="45.21976" lon="5.80248">
        <ele>236.62</ele>
        <time>2016-09-24T13:47:16Z</time>
      </trkpt>
      <trkpt lat="45.21948" lon="5.80247">
        <ele>235.66</ele>
        <time>2016-09-24T13:47:28Z</time>
      </trkpt>
      <trkpt lat="45.21926" lon="5.80248">
        <ele>234.7</ele>
        <time>2016-09-24T13:47:39Z</time>
      </trkpt>
      <trkpt lat="45.21898" lon="5.80259">
        <ele>233.26</ele>
        <time>2016-09-24T13:47:53Z</time>
      </trkpt>
      <trkpt lat="45.21873" lon="5.80261">
        <ele>232.78</ele>
        <time>2016-09-24T13:48:04Z</time>
      </trkpt>
      <trkpt lat="45.21849" lon="5.80258">
        <ele>231.33</ele>
        <time>2016-09-24T13:48:15Z</time>
      </trkpt>
      <trkpt lat="45.21817" lon="5.80256">
        <ele>230.37</ele>
        <time>2016-09-24T13:48:28Z</time>
      </trkpt>
      <trkpt lat="45.21784" lon="5.80251">
        <ele>228.93</ele>
        <time>2016-09-24T13:48:42Z</time>
      </trkpt>
      <trkpt lat="45.21747" lon="5.80244">
        <ele>227.97</ele>
        <time>2016-09-24T13:48:55Z</time>
      </trkpt>
      <trkpt lat="45.21713" lon="5.8024">
        <ele>227.01</ele>
        <time>2016-09-24T13:49:08Z</time>
      </trkpt>
      <trkpt lat="45.21689" lon="5.80234">
        <ele>226.05</ele>
        <time>2016-09-24T13:49:18Z</time>
      </trkpt>
      <trkpt lat="45.21664" lon="5.80239">
        <ele>225.09</ele>
        <time>2016-09-24T13:49:30Z</time>
      </trkpt>
      <trkpt lat="45.21637" lon="5.80261">
        <ele>224.12</ele>
        <time>2016-09-24T13:49:42Z</time>
      </trkpt>
      <trkpt lat="45.21611" lon="5.80288">
        <ele>223.64</ele>
        <time>2016-09-24T13:49:55Z</time>
      </trkpt>
      <trkpt lat="45.21585" lon="5.80308">
        <ele>222.2</ele>
        <time>2016-09-24T13:50:08Z</time>
      </trkpt>
      <trkpt lat="45.21562" lon="5.80325">
        <ele>221.72</ele>
        <time>2016-09-24T13:50:19Z</time>
      </trkpt>
      <trkpt lat="45.21537" lon="5.80348">
        <ele>221.24</ele>
        <time>2016-09-24T13:50:31Z</time>
      </trkpt>
      <trkpt lat="45.21514" lon="5.80377">
        <ele>220.28</ele>
        <time>2016-09-24T13:50:43Z</time>
      </trkpt>
      <trkpt lat="45.21491" lon="5.80409">
        <ele>219.32</ele>
        <time>2016-09-24T13:50:56Z</time>
      </trkpt>
      <trkpt lat="45.21471" lon="5.80442">
        <ele>218.84</ele>
        <time>2016-09-24T13:51:09Z</time>
      </trkpt>
      <trkpt lat="45.21445" lon="5.80474">
        <ele>218.36</ele>
        <time>2016-09-24T13:51:25Z</time>
      </trkpt>
      <trkpt lat="45.21423" lon="5.80492">
        <ele>217.4</ele>
        <time>2016-09-24T13:51:36Z</time>
      </trkpt>
      <trkpt lat="45.21395" lon="5.80518">
        <ele>216.91</ele>
        <time>2016-09-24T13:51:50Z</time>
      </trkpt>
      <trkpt lat="45.21367" lon="5.80545">
        <ele>215.95</ele>
        <time>2016-09-24T13:52:04Z</time>
      </trkpt>
      <trkpt lat="45.21346" lon="5.80563">
        <ele>215.47</ele>
        <time>2016-09-24T13:52:15Z</time>
      </trkpt>
      <trkpt lat="45.21324" lon="5.80584">
        <ele>215.47</ele>
        <time>2016-09-24T13:52:27Z</time>
      </trkpt>
      <trkpt lat="45.21302" lon="5.80607">
        <ele>214.51</ele>
        <time>2016-09-24T13:52:39Z</time>
      </trkpt>
      <trkpt lat="45.21286" lon="5.80628">
        <ele>214.03</ele>
        <time>2016-09-24T13:52:48Z</time>
      </trkpt>
      <trkpt lat="45.21261" lon="5.80654">
        <ele>213.07</ele>
        <time>2016-09-24T13:53:00Z</time>
      </trkpt>
      <trkpt lat="45.21252" lon="5.80662">
        <ele>213.07</ele>
        <time>2016-09-24T13:53:05Z</time>
      </trkpt>
      <trkpt lat="45.2125" lon="5.80665">
        <ele>213.07</ele>
        <time>2016-09-24T13:53:06Z</time>
      </trkpt>
      <trkpt lat="45.21249" lon="5.80667">
        <ele>213.07</ele>
        <time>2016-09-24T13:53:07Z</time>
      </trkpt>
      <trkpt lat="45.21247" lon="5.80669">
        <ele>213.07</ele>
        <time>2016-09-24T13:53:08Z</time>
      </trkpt>
      <trkpt lat="45.21245" lon="5.80672">
        <ele>213.07</ele>
        <time>2016-09-24T13:53:09Z</time>
      </trkpt>
      <trkpt lat="45.2124" lon="5.8068">
        <ele>212.59</ele>
        <time>2016-09-24T13:53:12Z</time>
      </trkpt>
      <trkpt lat="45.21236" lon="5.80716">
        <ele>212.11</ele>
        <time>2016-09-24T13:53:24Z</time>
      </trkpt>
      <trkpt lat="45.21235" lon="5.80751">
        <ele>212.11</ele>
        <time>2016-09-24T13:53:36Z</time>
      </trkpt>
      <trkpt lat="45.21235" lon="5.80771">
        <ele>211.63</ele>
        <time>2016-09-24T13:53:43Z</time>
      </trkpt>
      <trkpt lat="45.21235" lon="5.80774">
        <ele>211.63</ele>
        <time>2016-09-24T13:53:44Z</time>
      </trkpt>
      <trkpt lat="45.21236" lon="5.80777">
        <ele>211.63</ele>
        <time>2016-09-24T13:53:45Z</time>
      </trkpt>
      <trkpt lat="45.21237" lon="5.80779">
        <ele>211.63</ele>
        <time>2016-09-24T13:53:46Z</time>
      </trkpt>
      <trkpt lat="45.21238" lon="5.80782">
        <ele>211.63</ele>
        <time>2016-09-24T13:53:47Z</time>
      </trkpt>
      <trkpt lat="45.21238" lon="5.80785">
        <ele>211.63</ele>
        <time>2016-09-24T13:53:48Z</time>
      </trkpt>
      <trkpt lat="45.2124" lon="5.80806">
        <ele>211.63</ele>
        <time>2016-09-24T13:53:55Z</time>
      </trkpt>
      <trkpt lat="45.21255" lon="5.80841">
        <ele>213.07</ele>
        <time>2016-09-24T13:54:07Z</time>
      </trkpt>
      <trkpt lat="45.21265" lon="5.80884">
        <ele>213.07</ele>
        <time>2016-09-24T13:54:20Z</time>
      </trkpt>
      <trkpt lat="45.21283" lon="5.80927">
        <ele>213.07</ele>
        <time>2016-09-24T13:54:35Z</time>
      </trkpt>
      <trkpt lat="45.21303" lon="5.80958">
        <ele>213.07</ele>
        <time>2016-09-24T13:54:47Z</time>
      </trkpt>
      <trkpt lat="45.21331" lon="5.80989">
        <ele>213.55</ele>
        <time>2016-09-24T13:55:01Z</time>
      </trkpt>
      <trkpt lat="45.21363" lon="5.81014">
        <ele>213.55</ele>
        <time>2016-09-24T13:55:15Z</time>
      </trkpt>
      <trkpt lat="45.21383" lon="5.81042">
        <ele>213.55</ele>
        <time>2016-09-24T13:55:27Z</time>
      </trkpt>
      <trkpt lat="45.2141" lon="5.81075">
        <ele>213.55</ele>
        <time>2016-09-24T13:55:42Z</time>
      </trkpt>
      <trkpt lat="45.21437" lon="5.81101">
        <ele>213.55</ele>
        <time>2016-09-24T13:55:55Z</time>
      </trkpt>
      <trkpt lat="45.21465" lon="5.81132">
        <ele>213.55</ele>
        <time>2016-09-24T13:56:10Z</time>
      </trkpt>
      <trkpt lat="45.21492" lon="5.8116">
        <ele>213.55</ele>
        <time>2016-09-24T13:56:24Z</time>
      </trkpt>
      <trkpt lat="45.21522" lon="5.81181">
        <ele>213.55</ele>
        <time>2016-09-24T13:56:39Z</time>
      </trkpt>
      <trkpt lat="45.21546" lon="5.81206">
        <ele>213.55</ele>
        <time>2016-09-24T13:56:52Z</time>
      </trkpt>
      <trkpt lat="45.21553" lon="5.81219">
        <ele>212.11</ele>
        <time>2016-09-24T13:56:57Z</time>
      </trkpt>
      <trkpt lat="45.21571" lon="5.81261">
        <ele>211.63</ele>
        <time>2016-09-24T13:57:12Z</time>
      </trkpt>
      <trkpt lat="45.21575" lon="5.81273">
        <ele>211.63</ele>
        <time>2016-09-24T13:57:17Z</time>
      </trkpt>
      <trkpt lat="45.2158" lon="5.81314">
        <ele>211.63</ele>
        <time>2016-09-24T13:57:30Z</time>
      </trkpt>
      <trkpt lat="45.21581" lon="5.81357">
        <ele>211.63</ele>
        <time>2016-09-24T13:57:43Z</time>
      </trkpt>
      <trkpt lat="45.21581" lon="5.81368">
        <ele>211.63</ele>
        <time>2016-09-24T13:57:46Z</time>
      </trkpt>
      <trkpt lat="45.2158" lon="5.81371">
        <ele>211.63</ele>
        <time>2016-09-24T13:57:47Z</time>
      </trkpt>
      <trkpt lat="45.2158" lon="5.81374">
        <ele>210.67</ele>
        <time>2016-09-24T13:57:48Z</time>
      </trkpt>
      <trkpt lat="45.2158" lon="5.81377">
        <ele>214.03</ele>
        <time>2016-09-24T13:57:49Z</time>
      </trkpt>
      <trkpt lat="45.21586" lon="5.81405">
        <ele>214.03</ele>
        <time>2016-09-24T13:57:58Z</time>
      </trkpt>
      <trkpt lat="45.21589" lon="5.8141">
        <ele>212.59</ele>
        <time>2016-09-24T13:58:00Z</time>
      </trkpt>
      <trkpt lat="45.21618" lon="5.81449">
        <ele>212.59</ele>
        <time>2016-09-24T13:58:15Z</time>
      </trkpt>
      <trkpt lat="45.21644" lon="5.81479">
        <ele>212.59</ele>
        <time>2016-09-24T13:58:29Z</time>
      </trkpt>
      <trkpt lat="45.2167" lon="5.81514">
        <ele>212.59</ele>
        <time>2016-09-24T13:58:45Z</time>
      </trkpt>
      <trkpt lat="45.21692" lon="5.81542">
        <ele>212.59</ele>
        <time>2016-09-24T13:58:58Z</time>
      </trkpt>
      <trkpt lat="45.21717" lon="5.8156">
        <ele>214.03</ele>
        <time>2016-09-24T13:59:12Z</time>
      </trkpt>
      <trkpt lat="45.21748" lon="5.8156">
        <ele>214.03</ele>
        <time>2016-09-24T13:59:26Z</time>
      </trkpt>
      <trkpt lat="45.21777" lon="5.81556">
        <ele>214.03</ele>
        <time>2016-09-24T13:59:38Z</time>
      </trkpt>
      <trkpt lat="45.21802" lon="5.8154">
        <ele>214.03</ele>
        <time>2016-09-24T13:59:50Z</time>
      </trkpt>
      <trkpt lat="45.21826" lon="5.81513">
        <ele>214.51</ele>
        <time>2016-09-24T14:00:04Z</time>
      </trkpt>
      <trkpt lat="45.21848" lon="5.81488">
        <ele>214.99</ele>
        <time>2016-09-24T14:00:16Z</time>
      </trkpt>
      <trkpt lat="45.21864" lon="5.81473">
        <ele>214.51</ele>
        <time>2016-09-24T14:00:25Z</time>
      </trkpt>
      <trkpt lat="45.21866" lon="5.81472">
        <ele>214.51</ele>
        <time>2016-09-24T14:00:26Z</time>
      </trkpt>
      <trkpt lat="45.21868" lon="5.81471">
        <ele>214.51</ele>
        <time>2016-09-24T14:00:27Z</time>
      </trkpt>
      <trkpt lat="45.21893" lon="5.81451">
        <ele>214.99</ele>
        <time>2016-09-24T14:00:38Z</time>
      </trkpt>
      <trkpt lat="45.21919" lon="5.81427">
        <ele>215.47</ele>
        <time>2016-09-24T14:00:50Z</time>
      </trkpt>
      <trkpt lat="45.21945" lon="5.81401">
        <ele>215.95</ele>
        <time>2016-09-24T14:01:04Z</time>
      </trkpt>
      <trkpt lat="45.21957" lon="5.81363">
        <ele>215.95</ele>
        <time>2016-09-24T14:01:17Z</time>
      </trkpt>
      <trkpt lat="45.21958" lon="5.81335">
        <ele>216.43</ele>
        <time>2016-09-24T14:01:25Z</time>
      </trkpt>
      <trkpt lat="45.21957" lon="5.81332">
        <ele>216.43</ele>
        <time>2016-09-24T14:01:26Z</time>
      </trkpt>
      <trkpt lat="45.21955" lon="5.81297">
        <ele>216.43</ele>
        <time>2016-09-24T14:01:38Z</time>
      </trkpt>
      <trkpt lat="45.21956" lon="5.8126">
        <ele>217.4</ele>
        <time>2016-09-24T14:01:50Z</time>
      </trkpt>
      <trkpt lat="45.21974" lon="5.81229">
        <ele>217.4</ele>
        <time>2016-09-24T14:02:03Z</time>
      </trkpt>
      <trkpt lat="45.21993" lon="5.81208">
        <ele>218.84</ele>
        <time>2016-09-24T14:02:15Z</time>
      </trkpt>
      <trkpt lat="45.21997" lon="5.81199">
        <ele>219.32</ele>
        <time>2016-09-24T14:02:18Z</time>
      </trkpt>
      <trkpt lat="45.21998" lon="5.81196">
        <ele>219.32</ele>
        <time>2016-09-24T14:02:19Z</time>
      </trkpt>
      <trkpt lat="45.22002" lon="5.81179">
        <ele>219.32</ele>
        <time>2016-09-24T14:02:24Z</time>
      </trkpt>
      <trkpt lat="45.22004" lon="5.81177">
        <ele>219.32</ele>
        <time>2016-09-24T14:02:25Z</time>
      </trkpt>
      <trkpt lat="45.22006" lon="5.81174">
        <ele>219.32</ele>
        <time>2016-09-24T14:02:26Z</time>
      </trkpt>
      <trkpt lat="45.22008" lon="5.81172">
        <ele>219.32</ele>
        <time>2016-09-24T14:02:27Z</time>
      </trkpt>
      <trkpt lat="45.2201" lon="5.81171">
        <ele>219.32</ele>
        <time>2016-09-24T14:02:28Z</time>
      </trkpt>
      <trkpt lat="45.22012" lon="5.81171">
        <ele>219.32</ele>
        <time>2016-09-24T14:02:29Z</time>
      </trkpt>
      <trkpt lat="45.22014" lon="5.81172">
        <ele>219.32</ele>
        <time>2016-09-24T14:02:30Z</time>
      </trkpt>
      <trkpt lat="45.22016" lon="5.81172">
        <ele>219.32</ele>
        <time>2016-09-24T14:02:31Z</time>
      </trkpt>
      <trkpt lat="45.22018" lon="5.81171">
        <ele>219.32</ele>
        <time>2016-09-24T14:02:32Z</time>
      </trkpt>
      <trkpt lat="45.2202" lon="5.8117">
        <ele>219.32</ele>
        <time>2016-09-24T14:02:33Z</time>
      </trkpt>
      <trkpt lat="45.22022" lon="5.81168">
        <ele>219.32</ele>
        <time>2016-09-24T14:02:34Z</time>
      </trkpt>
      <trkpt lat="45.22023" lon="5.81166">
        <ele>219.32</ele>
        <time>2016-09-24T14:02:35Z</time>
      </trkpt>
      <trkpt lat="45.22025" lon="5.81163">
        <ele>219.32</ele>
        <time>2016-09-24T14:02:36Z</time>
      </trkpt>
      <trkpt lat="45.22027" lon="5.81161">
        <ele>219.32</ele>
        <time>2016-09-24T14:02:37Z</time>
      </trkpt>
      <trkpt lat="45.22029" lon="5.8116">
        <ele>219.32</ele>
        <time>2016-09-24T14:02:38Z</time>
      </trkpt>
      <trkpt lat="45.22031" lon="5.81158">
        <ele>219.32</ele>
        <time>2016-09-24T14:02:39Z</time>
      </trkpt>
      <trkpt lat="45.22033" lon="5.81155">
        <ele>219.32</ele>
        <time>2016-09-24T14:02:40Z</time>
      </trkpt>
      <trkpt lat="45.22035" lon="5.81153">
        <ele>219.32</ele>
        <time>2016-09-24T14:02:41Z</time>
      </trkpt>
      <trkpt lat="45.22037" lon="5.8115">
        <ele>219.32</ele>
        <time>2016-09-24T14:02:42Z</time>
      </trkpt>
      <trkpt lat="45.22039" lon="5.81148">
        <ele>219.32</ele>
        <time>2016-09-24T14:02:43Z</time>
      </trkpt>
      <trkpt lat="45.22062" lon="5.81123">
        <ele>220.28</ele>
        <time>2016-09-24T14:02:55Z</time>
      </trkpt>
      <trkpt lat="45.22069" lon="5.81117">
        <ele>220.76</ele>
        <time>2016-09-24T14:02:59Z</time>
      </trkpt>
      <trkpt lat="45.2207" lon="5.81116">
        <ele>220.76</ele>
        <time>2016-09-24T14:03:00Z</time>
      </trkpt>
      <trkpt lat="45.22072" lon="5.81116">
        <ele>220.76</ele>
        <time>2016-09-24T14:03:01Z</time>
      </trkpt>
      <trkpt lat="45.22073" lon="5.81116">
        <ele>220.76</ele>
        <time>2016-09-24T14:03:02Z</time>
      </trkpt>
      <trkpt lat="45.22075" lon="5.81116">
        <ele>220.76</ele>
        <time>2016-09-24T14:03:03Z</time>
      </trkpt>
      <trkpt lat="45.22076" lon="5.81117">
        <ele>220.76</ele>
        <time>2016-09-24T14:03:04Z</time>
      </trkpt>
      <trkpt lat="45.22077" lon="5.81118">
        <ele>220.76</ele>
        <time>2016-09-24T14:03:05Z</time>
      </trkpt>
      <trkpt lat="45.22079" lon="5.81119">
        <ele>220.76</ele>
        <time>2016-09-24T14:03:06Z</time>
      </trkpt>
      <trkpt lat="45.22081" lon="5.81121">
        <ele>220.76</ele>
        <time>2016-09-24T14:03:07Z</time>
      </trkpt>
      <trkpt lat="45.22082" lon="5.81123">
        <ele>220.76</ele>
        <time>2016-09-24T14:03:08Z</time>
      </trkpt>
      <trkpt lat="45.22091" lon="5.81134">
        <ele>220.76</ele>
        <time>2016-09-24T14:03:14Z</time>
      </trkpt>
      <trkpt lat="45.22093" lon="5.81135">
        <ele>220.28</ele>
        <time>2016-09-24T14:03:15Z</time>
      </trkpt>
      <trkpt lat="45.22099" lon="5.81142">
        <ele>220.28</ele>
        <time>2016-09-24T14:03:19Z</time>
      </trkpt>
      <trkpt lat="45.22101" lon="5.81143">
        <ele>220.28</ele>
        <time>2016-09-24T14:03:20Z</time>
      </trkpt>
      <trkpt lat="45.22103" lon="5.81145">
        <ele>220.28</ele>
        <time>2016-09-24T14:03:21Z</time>
      </trkpt>
      <trkpt lat="45.22131" lon="5.81167">
        <ele>221.24</ele>
        <time>2016-09-24T14:03:35Z</time>
      </trkpt>
      <trkpt lat="45.22156" lon="5.81182">
        <ele>221.72</ele>
        <time>2016-09-24T14:03:46Z</time>
      </trkpt>
      <trkpt lat="45.22183" lon="5.81186">
        <ele>222.2</ele>
        <time>2016-09-24T14:03:58Z</time>
      </trkpt>
      <trkpt lat="45.22213" lon="5.81182">
        <ele>223.16</ele>
        <time>2016-09-24T14:04:10Z</time>
      </trkpt>
      <trkpt lat="45.22235" lon="5.81185">
        <ele>223.64</ele>
        <time>2016-09-24T14:04:20Z</time>
      </trkpt>
      <trkpt lat="45.22242" lon="5.81193">
        <ele>224.12</ele>
        <time>2016-09-24T14:04:26Z</time>
      </trkpt>
      <trkpt lat="45.22244" lon="5.81194">
        <ele>224.12</ele>
        <time>2016-09-24T14:04:27Z</time>
      </trkpt>
      <trkpt lat="45.22247" lon="5.81194">
        <ele>224.61</ele>
        <time>2016-09-24T14:04:28Z</time>
      </trkpt>
      <trkpt lat="45.22249" lon="5.81195">
        <ele>224.61</ele>
        <time>2016-09-24T14:04:29Z</time>
      </trkpt>
      <trkpt lat="45.22251" lon="5.81198">
        <ele>224.61</ele>
        <time>2016-09-24T14:04:30Z</time>
      </trkpt>
      <trkpt lat="45.22252" lon="5.812">
        <ele>224.61</ele>
        <time>2016-09-24T14:04:31Z</time>
      </trkpt>
      <trkpt lat="45.22257" lon="5.81208">
        <ele>224.61</ele>
        <time>2016-09-24T14:04:35Z</time>
      </trkpt>
      <trkpt lat="45.22258" lon="5.81211">
        <ele>221.72</ele>
        <time>2016-09-24T14:04:37Z</time>
      </trkpt>
      <trkpt lat="45.2226" lon="5.81212">
        <ele>227.97</ele>
        <time>2016-09-24T14:04:38Z</time>
      </trkpt>
      <trkpt lat="45.22262" lon="5.81213">
        <ele>224.61</ele>
        <time>2016-09-24T14:04:39Z</time>
      </trkpt>
    </trkseg>
  </trk>
</gpx>